createdAt,value
2019-01-26T00:02:14.753Z,98042.13
2019-01-26T00:04:43.293Z,98039.66
2019-01-26T00:07:12.638Z,98033.34
2019-01-26T00:09:41.958Z,98029.48
2019-01-26T00:12:11.303Z,98033.91
2019-01-26T00:14:40.646Z,98029.98
2019-01-26T00:17:09.199Z,98026.41
2019-01-26T00:19:37.734Z,98023.90
2019-01-26T00:22:06.163Z,98017.70
2019-01-26T00:24:34.713Z,98009.53
2019-01-26T00:27:03.248Z,98012.69
2019-01-26T00:29:32.575Z,98015.44
2019-01-26T00:32:01.917Z,98015.32
2019-01-26T00:34:31.245Z,98007.65
2019-01-26T00:37:00.567Z,98013.73
2019-01-26T00:39:29.910Z,98018.02
2019-01-26T00:41:59.216Z,98019.86
2019-01-26T00:44:28.541Z,98017.81
2019-01-26T00:46:57.918Z,98019.86
2019-01-26T00:49:26.454Z,98027.14
2019-01-26T00:51:55.786Z,98019.86
2019-01-26T00:54:25.280Z,98014.16
2019-01-26T00:56:54.621Z,98007.50
2019-01-26T00:59:23.943Z,98011.16
2019-01-26T01:01:52.452Z,98011.66
2019-01-26T01:04:21.781Z,98017.55
2019-01-26T01:06:51.210Z,98012.77
2019-01-26T01:09:19.734Z,98014.50
2019-01-26T01:11:48.263Z,98017.16
2019-01-26T01:14:17.602Z,98025.87
2019-01-26T01:16:46.934Z,98021.78
2019-01-26T01:19:16.275Z,98018.32
2019-01-26T01:21:44.855Z,98011.16
2019-01-26T01:24:14.232Z,98008.16
2019-01-26T01:26:43.562Z,98010.31
2019-01-26T01:29:12.887Z,97993.09
2019-01-26T01:31:42.224Z,98001.72
2019-01-26T01:34:10.642Z,97994.37
2019-01-26T01:36:39.179Z,97994.52
2019-01-26T01:39:20.830Z,97993.91
2019-01-26T01:41:50.135Z,97989.86
2019-01-26T01:44:19.466Z,97986.97
2019-01-26T01:46:48.789Z,97988.09
2019-01-26T01:49:18.133Z,97983.28
2019-01-26T01:51:47.467Z,97980.16
2019-01-26T01:54:16.795Z,97986.82
2019-01-26T01:56:46.131Z,97980.47
2019-01-26T01:59:15.447Z,97981.59
2019-01-26T02:01:44.780Z,97980.31
2019-01-26T02:04:14.101Z,97974.66
2019-01-26T02:06:42.626Z,97975.70
2019-01-26T02:09:11.946Z,97976.08
2019-01-26T02:11:41.279Z,97972.46
2019-01-26T02:14:10.612Z,97977.31
2019-01-26T02:16:39.933Z,97975.35
2019-01-26T02:19:09.288Z,97980.53
2019-01-26T02:21:38.614Z,97977.65
2019-01-26T02:24:07.930Z,97974.65
2019-01-26T02:26:37.285Z,97970.23
2019-01-26T02:29:06.617Z,97976.23
2019-01-26T02:31:35.160Z,97974.08
2019-01-26T02:34:04.586Z,97967.91
2019-01-26T02:36:34.002Z,97964.10
2019-01-26T02:39:06.209Z,97958.87
2019-01-26T02:41:34.738Z,97954.59
2019-01-26T02:44:04.412Z,97962.91
2019-01-26T02:46:33.744Z,97963.56
2019-01-26T02:49:03.170Z,97964.63
2019-01-26T02:51:32.496Z,97961.52
2019-01-26T02:54:01.822Z,97969.63
2019-01-26T02:56:31.160Z,97965.44
2019-01-26T02:58:59.686Z,97968.28
2019-01-26T03:01:29.017Z,97971.70
2019-01-26T03:03:57.559Z,97969.88
2019-01-26T03:06:25.962Z,97966.22
2019-01-26T03:08:55.295Z,97968.33
2019-01-26T03:11:24.050Z,97967.37
2019-01-26T03:13:53.387Z,97981.38
2019-01-26T03:16:22.706Z,97976.34
2019-01-26T03:18:52.071Z,97978.11
2019-01-26T03:21:21.386Z,97974.02
2019-01-26T03:23:50.718Z,97969.44
2019-01-26T03:26:19.154Z,97974.50
2019-01-26T03:28:48.474Z,97972.19
2019-01-26T03:31:16.911Z,97976.93
2019-01-26T03:33:46.229Z,97970.39
2019-01-26T03:36:15.542Z,97974.13
2019-01-26T03:38:44.856Z,97976.45
2019-01-26T03:41:14.184Z,97977.59
2019-01-26T03:43:42.614Z,97975.64
2019-01-26T03:46:11.937Z,97966.73
2019-01-26T03:48:40.458Z,97966.53
2019-01-26T03:51:08.901Z,97969.69
2019-01-26T03:53:38.243Z,97973.72
2019-01-26T03:56:07.672Z,97978.56
2019-01-26T03:58:37.087Z,97979.23
2019-01-26T04:01:05.525Z,97979.52
2019-01-26T04:03:34.947Z,97980.91
2019-01-26T04:06:04.285Z,97996.58
2019-01-26T04:08:33.605Z,97995.27
2019-01-26T04:11:02.138Z,98005.00
2019-01-26T04:13:30.642Z,98002.09
2019-01-26T04:15:59.974Z,98006.96
2019-01-26T04:18:29.279Z,98003.61
2019-01-26T04:20:58.615Z,97998.28
2019-01-26T04:23:27.931Z,97996.31
2019-01-26T04:25:57.267Z,97999.03
2019-01-26T04:28:26.612Z,98002.56
2019-01-26T04:30:55.927Z,98010.22
2019-01-26T04:33:25.243Z,98003.52
2019-01-26T04:35:54.588Z,98006.69
2019-01-26T04:38:23.921Z,98007.61
2019-01-26T04:40:53.266Z,98012.20
2019-01-26T04:43:21.692Z,98014.88
2019-01-26T04:45:51.011Z,98019.55
2019-01-26T04:48:20.344Z,98025.90
2019-01-26T04:50:49.677Z,98021.41
2019-01-26T04:53:19.008Z,98024.98
2019-01-26T04:55:47.542Z,98031.69
2019-01-26T04:58:16.862Z,98036.53
2019-01-26T05:00:45.282Z,98039.64
2019-01-26T05:03:14.606Z,98042.89
2019-01-26T05:05:43.027Z,98043.28
2019-01-26T05:08:12.350Z,98044.66
2019-01-26T05:10:41.682Z,98037.95
2019-01-26T05:13:11.024Z,98034.66
2019-01-26T05:15:40.459Z,98033.45
2019-01-26T05:18:08.990Z,98023.92
2019-01-26T05:20:38.334Z,98018.24
2019-01-26T05:23:06.862Z,98019.76
2019-01-26T05:25:35.431Z,98023.19
2019-01-26T05:28:04.841Z,98031.69
2019-01-26T05:30:34.158Z,98033.46
2019-01-26T05:33:04.321Z,98040.09
2019-01-26T05:35:33.644Z,98046.12
2019-01-26T05:38:02.976Z,98044.16
2019-01-26T05:40:32.402Z,98043.63
2019-01-26T05:43:01.750Z,98050.16
2019-01-26T05:45:31.211Z,98052.03
2019-01-26T05:48:00.549Z,98057.72
2019-01-26T05:50:28.977Z,98063.69
2019-01-26T05:52:57.530Z,98075.73
2019-01-26T05:55:26.072Z,98073.22
2019-01-26T05:57:55.389Z,98076.75
2019-01-26T06:00:31.635Z,98079.94
2019-01-26T06:03:00.264Z,98087.47
2019-01-26T06:05:28.687Z,98083.77
2019-01-26T06:07:58.146Z,98088.27
2019-01-26T06:10:27.481Z,98084.70
2019-01-26T06:12:55.925Z,98075.56
2019-01-26T06:15:43.234Z,98083.05
2019-01-26T06:18:12.697Z,98089.02
2019-01-26T06:20:42.014Z,98090.61
2019-01-26T06:23:10.576Z,98093.86
2019-01-26T06:25:39.106Z,98092.83
2019-01-26T06:28:08.446Z,98092.94
2019-01-26T06:30:37.771Z,98093.12
2019-01-26T06:36:09.636Z,98105.62
2019-01-26T06:38:38.963Z,98101.52
2019-01-26T06:41:08.286Z,98099.66
2019-01-26T06:43:37.620Z,98095.17
2019-01-26T06:46:06.939Z,98089.77
2019-01-26T06:48:36.264Z,98085.73
2019-01-26T06:51:04.693Z,98100.11
2019-01-26T06:53:33.240Z,98103.01
2019-01-26T06:56:02.621Z,98101.70
2019-01-26T06:58:32.151Z,98108.73
2019-01-26T07:01:20.377Z,98110.03
2019-01-26T07:03:49.726Z,98112.27
2019-01-26T07:06:26.755Z,98118.41
2019-01-26T07:08:56.097Z,98121.98
2019-01-26T07:11:24.515Z,98125.06
2019-01-26T07:13:53.042Z,98128.80
2019-01-26T07:19:18.380Z,98136.82
2019-01-26T07:21:47.702Z,98147.46
2019-01-26T07:24:17.047Z,98150.28
2019-01-26T07:26:45.619Z,98143.08
2019-01-26T07:29:14.147Z,98155.59
2019-01-26T07:31:43.462Z,98158.88
2019-01-26T07:34:12.781Z,98161.31
2019-01-26T07:36:41.214Z,98163.64
2019-01-26T07:39:10.594Z,98159.42
2019-01-26T07:41:39.863Z,98165.30
2019-01-26T07:44:08.287Z,98165.41
2019-01-26T07:46:36.806Z,98159.44
2019-01-26T07:49:06.129Z,98158.13
2019-01-26T07:51:34.625Z,98152.52
2019-01-26T07:57:06.547Z,98154.38
2019-01-26T07:59:35.190Z,98163.44
2019-01-26T08:02:03.832Z,98160.46
2019-01-26T08:04:33.175Z,98164.09
2019-01-26T08:07:02.605Z,98170.25
2019-01-26T08:09:31.940Z,98167.57
2019-01-26T08:12:00.383Z,98170.08
2019-01-26T08:14:28.938Z,98164.74
2019-01-26T08:16:58.267Z,98161.03
2019-01-26T08:19:26.731Z,98163.53
2019-01-26T08:21:55.267Z,98168.87
2019-01-26T08:24:24.591Z,98170.35
2019-01-26T08:26:53.918Z,98161.66
2019-01-26T08:29:23.257Z,98167.07
2019-01-26T08:31:52.592Z,98169.97
2019-01-26T08:34:21.127Z,98168.77
2019-01-26T08:36:49.583Z,98173.54
2019-01-26T08:39:18.933Z,98183.90
2019-01-26T08:41:47.465Z,98183.16
2019-01-26T08:44:15.886Z,98181.11
2019-01-26T08:46:45.223Z,98183.55
2019-01-26T08:49:13.674Z,98190.83
2019-01-26T08:51:42.992Z,98189.70
2019-01-26T08:54:12.355Z,98192.14
2019-01-26T08:56:41.680Z,98184.01
2019-01-26T08:59:11.008Z,98181.39
2019-01-26T09:01:39.558Z,98185.78
2019-01-26T09:04:28.375Z,98188.03
2019-01-26T09:07:02.690Z,98185.03
2019-01-26T09:09:31.128Z,98189.41
2019-01-26T09:11:59.658Z,98186.52
2019-01-26T09:14:28.990Z,98188.39
2019-01-26T09:16:58.323Z,98193.06
2019-01-26T09:19:27.653Z,98203.52
2019-01-26T09:21:56.981Z,98203.16
2019-01-26T09:24:26.298Z,98200.73
2019-01-26T09:26:55.633Z,98208.97
2019-01-26T09:29:24.059Z,98200.73
2019-01-26T09:31:52.514Z,98195.77
2019-01-26T09:34:21.851Z,98193.05
2019-01-26T09:36:51.167Z,98198.50
2019-01-26T09:39:20.504Z,98197.19
2019-01-26T09:41:49.827Z,98192.13
2019-01-26T09:44:19.170Z,98193.16
2019-01-26T09:46:48.509Z,98199.80
2019-01-26T09:49:17.040Z,98198.11
2019-01-26T09:51:46.393Z,98189.61
2019-01-26T09:54:14.834Z,98192.23
2019-01-26T09:56:43.278Z,98191.66
2019-01-26T09:59:13.678Z,98196.14
2019-01-26T10:02:01.848Z,98183.34
2019-01-26T10:04:31.189Z,98189.42
2019-01-26T10:06:59.706Z,98185.77
2019-01-26T10:09:29.043Z,98184.91
2019-01-26T10:11:58.387Z,98179.30
2019-01-26T10:14:26.812Z,98180.53
2019-01-26T10:16:55.244Z,98185.84
2019-01-26T10:19:24.591Z,98179.01
2019-01-26T10:21:53.921Z,98183.67
2019-01-26T10:24:23.267Z,98182.47
2019-01-26T10:26:52.607Z,98172.56
2019-01-26T10:29:21.951Z,98174.33
2019-01-26T10:31:51.284Z,98175.00
2019-01-26T10:34:20.623Z,98170.51
2019-01-26T10:37:10.002Z,98181.26
2019-01-26T10:39:38.644Z,98185.27
2019-01-26T10:42:26.731Z,98181.34
2019-01-26T10:44:55.377Z,98177.80
2019-01-26T10:47:24.711Z,98178.48
2019-01-26T10:49:54.043Z,98184.73
2019-01-26T10:52:23.378Z,98184.91
2019-01-26T10:54:52.777Z,98191.45
2019-01-26T10:57:21.208Z,98196.97
2019-01-26T10:59:49.651Z,98196.32
2019-01-26T11:02:18.093Z,98196.25
2019-01-26T11:04:47.426Z,98188.39
2019-01-26T11:07:16.756Z,98188.56
2019-01-26T11:09:46.187Z,98189.41
2019-01-26T11:12:15.632Z,98192.77
2019-01-26T11:14:44.986Z,98186.05
2019-01-26T11:17:14.345Z,98191.27
2019-01-26T11:19:43.871Z,98192.31
2019-01-26T11:22:13.212Z,98191.17
2019-01-26T11:24:41.688Z,98183.70
2019-01-26T11:27:10.124Z,98174.70
2019-01-26T11:29:39.467Z,98181.61
2019-01-26T11:32:08.789Z,98178.42
2019-01-26T11:34:38.143Z,98179.36
2019-01-26T11:37:07.473Z,98175.59
2019-01-26T11:42:15.837Z,98180.27
2019-01-26T11:45:04.684Z,98176.69
2019-01-26T11:47:34.044Z,98172.67
2019-01-26T11:53:06.156Z,98168.88
2019-01-26T11:55:54.261Z,98161.02
2019-01-26T11:58:22.759Z,98164.64
2019-01-26T12:01:11.547Z,98164.53
2019-01-26T12:03:59.537Z,98164.92
2019-01-26T12:06:41.397Z,98167.42
2019-01-26T12:12:06.336Z,98161.98
2019-01-26T12:14:35.657Z,98166.88
2019-01-26T12:17:04.076Z,98163.03
2019-01-26T12:19:33.432Z,98165.57
2019-01-26T12:22:02.753Z,98170.81
2019-01-26T12:24:32.144Z,98161.38
2019-01-26T12:27:00.594Z,98165.08
2019-01-26T12:29:30.027Z,98161.41
2019-01-26T12:31:59.399Z,98163.11
2019-01-26T12:34:28.727Z,98169.00
2019-01-26T12:36:57.350Z,98165.19
2019-01-26T12:39:25.776Z,98163.69
2019-01-26T12:41:55.106Z,98169.00
2019-01-26T12:44:24.427Z,98171.36
2019-01-26T12:46:53.761Z,98171.47
2019-01-26T12:49:29.333Z,98169.31
2019-01-26T12:52:12.359Z,98171.00
2019-01-26T12:54:41.101Z,98179.98
2019-01-26T13:06:28.298Z,98185.63
2019-01-26T13:08:56.728Z,98189.75
2019-01-26T13:11:27.943Z,98194.90
2019-01-26T13:13:56.616Z,98191.71
2019-01-26T13:16:25.976Z,98204.55
2019-01-26T13:18:55.424Z,98212.86
2019-01-26T13:21:24.860Z,98211.75
2019-01-26T13:23:54.203Z,98217.72
2019-01-26T13:26:23.526Z,98230.00
2019-01-26T13:28:52.839Z,98231.77
2019-01-26T13:31:21.270Z,98241.28
2019-01-26T13:33:49.795Z,98240.92
2019-01-26T13:36:18.336Z,98244.11
2019-01-26T13:38:46.956Z,98246.45
2019-01-26T13:44:30.862Z,98252.70
2019-01-26T13:50:02.292Z,98259.88
2019-01-26T13:52:30.719Z,98266.39
2019-01-26T13:54:59.144Z,98275.12
2019-01-26T13:57:28.579Z,98272.22
2019-01-26T13:59:57.899Z,98266.95
2019-01-26T14:02:27.241Z,98275.44
2019-01-26T14:04:56.784Z,98274.98
2019-01-26T14:07:25.440Z,98278.84
2019-01-26T14:12:55.771Z,98281.50
2019-01-26T14:15:24.396Z,98283.55
2019-01-26T14:17:53.740Z,98279.50
2019-01-26T14:23:06.119Z,98286.98
2019-01-26T14:25:34.541Z,98283.62
2019-01-26T14:28:04.287Z,98286.75
2019-01-26T14:30:38.791Z,98290.55
2019-01-26T14:33:07.525Z,98290.02
2019-01-26T14:35:36.948Z,98286.92
2019-01-26T14:38:06.378Z,98289.52
2019-01-26T14:40:34.798Z,98288.23
2019-01-26T14:43:04.371Z,98293.02
2019-01-26T14:45:33.694Z,98290.62
2019-01-26T14:48:03.345Z,98300.36
2019-01-26T14:50:32.667Z,98297.80
2019-01-26T14:53:01.192Z,98301.42
2019-01-26T14:55:30.844Z,98306.73
2019-01-26T14:58:00.353Z,98304.48
2019-01-26T15:00:31.286Z,98306.78
2019-01-26T15:03:00.064Z,98311.24
2019-01-26T15:05:29.593Z,98312.85
2019-01-26T15:07:59.377Z,98318.43
2019-01-26T15:10:28.050Z,98317.92
2019-01-26T15:12:57.476Z,98311.39
2019-01-26T15:15:26.812Z,98308.18
2019-01-26T15:17:56.133Z,98313.27
2019-01-26T15:20:30.956Z,98319.47
2019-01-26T15:22:59.673Z,98319.34
2019-01-26T15:25:28.295Z,98325.29
2019-01-26T15:27:57.628Z,98329.05
2019-01-26T15:30:29.256Z,98328.38
2019-01-26T15:35:59.578Z,98341.13
2019-01-26T15:38:28.010Z,98347.95
2019-01-26T15:40:57.333Z,98350.55
2019-01-26T15:43:26.668Z,98352.62
2019-01-26T15:45:55.997Z,98361.86
2019-01-26T15:48:25.327Z,98360.66
2019-01-26T15:50:54.660Z,98371.71
2019-01-26T15:53:23.996Z,98371.17
2019-01-26T15:55:53.402Z,98380.14
2019-01-26T15:58:22.750Z,98385.35
2019-01-26T16:00:51.193Z,98388.75
2019-01-26T16:06:03.335Z,98391.98
2019-01-26T16:08:31.968Z,98403.70
2019-01-26T16:11:00.387Z,98405.83
2019-01-26T16:13:29.908Z,98402.23
2019-01-26T16:15:59.235Z,98405.69
2019-01-26T16:18:28.559Z,98405.22
2019-01-26T16:23:41.240Z,98414.63
2019-01-26T16:26:10.609Z,98418.63
2019-01-26T16:28:39.931Z,98427.92
2019-01-26T16:31:08.368Z,98433.72
2019-01-26T16:33:37.704Z,98443.11
2019-01-26T16:36:07.017Z,98453.53
2019-01-26T16:38:36.341Z,98450.98
2019-01-26T16:41:05.916Z,98445.81
2019-01-26T16:43:34.435Z,98448.91
2019-01-26T16:46:04.179Z,98447.20
2019-01-26T16:48:32.816Z,98452.23
2019-01-26T16:51:02.156Z,98450.61
2019-01-26T16:53:31.638Z,98450.25
2019-01-26T16:56:00.977Z,98455.78
2019-01-26T16:58:30.315Z,98468.72
2019-01-26T17:01:00.737Z,98466.95
2019-01-26T17:03:29.261Z,98472.78
2019-01-26T17:05:58.607Z,98478.69
2019-01-26T17:08:27.928Z,98484.69
2019-01-26T17:10:56.381Z,98482.53
2019-01-26T17:13:24.896Z,98485.02
2019-01-26T17:18:56.609Z,98488.84
2019-01-26T17:21:36.896Z,98493.42
2019-01-26T17:27:07.996Z,98498.72
2019-01-26T17:29:37.317Z,98502.53
2019-01-26T17:32:06.787Z,98508.18
2019-01-26T17:34:35.752Z,98514.60
2019-01-26T17:37:05.158Z,98516.28
2019-01-26T17:39:33.693Z,98523.39
2019-01-26T17:42:03.032Z,98530.68
2019-01-26T17:44:32.350Z,98528.23
2019-01-26T17:47:01.679Z,98540.77
2019-01-26T17:49:31.023Z,98540.33
2019-01-26T17:51:59.444Z,98536.71
2019-01-26T17:54:27.873Z,98535.86
2019-01-26T17:56:57.191Z,98536.86
2019-01-26T17:59:26.535Z,98544.28
2019-01-26T18:01:55.855Z,98541.47
2019-01-26T18:04:25.197Z,98543.30
2019-01-26T18:06:54.531Z,98546.11
2019-01-26T18:09:23.854Z,98551.93
2019-01-26T18:11:53.283Z,98554.62
2019-01-26T18:14:22.614Z,98561.00
2019-01-26T18:16:51.046Z,98561.89
2019-01-26T18:19:19.473Z,98560.59
2019-01-26T18:21:47.930Z,98562.30
2019-01-26T18:24:17.349Z,98558.39
2019-01-26T18:26:46.676Z,98561.65
2019-01-26T18:29:16.034Z,98560.87
2019-01-26T18:31:45.413Z,98561.27
2019-01-26T18:34:14.744Z,98566.73
2019-01-26T18:36:44.165Z,98568.08
2019-01-26T18:39:12.625Z,98570.83
2019-01-26T18:41:41.097Z,98567.49
2019-01-26T18:44:09.513Z,98567.64
2019-01-26T18:46:38.837Z,98564.89
2019-01-26T18:49:08.165Z,98573.02
2019-01-26T18:51:37.508Z,98573.06
2019-01-26T18:57:03.095Z,98572.85
2019-01-26T18:59:31.716Z,98581.18
2019-01-26T19:02:01.075Z,98577.52
2019-01-26T19:04:40.747Z,98586.55
2019-01-26T19:07:10.085Z,98581.70
2019-01-26T19:09:38.685Z,98575.40
2019-01-26T19:12:08.052Z,98583.31
2019-01-26T19:14:37.372Z,98580.09
2019-01-26T19:17:05.796Z,98573.09
2019-01-26T19:19:34.341Z,98581.61
2019-01-26T19:22:02.775Z,98584.21
2019-01-26T19:24:32.102Z,98582.13
2019-01-26T19:27:01.460Z,98586.05
2019-01-26T19:29:30.886Z,98590.27
2019-01-26T19:31:59.409Z,98593.51
2019-01-26T19:34:28.756Z,98593.88
2019-01-26T19:36:58.079Z,98595.23
2019-01-26T19:39:26.616Z,98591.61
2019-01-26T19:41:55.041Z,98597.24
2019-01-26T19:44:24.363Z,98598.31
2019-01-26T19:46:53.702Z,98599.86
2019-01-26T19:49:23.139Z,98593.65
2019-01-26T19:51:52.473Z,98594.03
2019-01-26T19:54:21.791Z,98603.30
2019-01-26T19:56:51.325Z,98597.15
2019-01-26T19:59:20.654Z,98594.85
2019-01-26T20:01:50.108Z,98595.52
2019-01-26T20:04:19.424Z,98597.13
2019-01-26T20:06:47.953Z,98599.23
2019-01-26T20:12:12.068Z,98593.51
2019-01-26T20:14:40.709Z,98597.10
2019-01-26T20:17:10.052Z,98599.90
2019-01-26T20:19:39.526Z,98604.15
2019-01-26T20:22:08.084Z,98597.97
2019-01-26T20:24:36.617Z,98604.44
2019-01-26T20:27:05.943Z,98599.56
2019-01-26T20:29:35.274Z,98609.35
2019-01-26T20:32:04.728Z,98607.11
2019-01-26T20:37:36.589Z,98604.36
2019-01-26T20:40:07.719Z,98606.89
2019-01-26T20:42:39.135Z,98603.81
2019-01-26T20:45:10.680Z,98608.86
2019-01-26T20:47:39.459Z,98616.33
2019-01-26T20:50:09.352Z,98615.67
2019-01-26T20:52:37.883Z,98609.05
2019-01-26T20:55:07.966Z,98612.76
2019-01-26T20:57:37.551Z,98617.06
2019-01-26T21:00:19.832Z,98614.66
2019-01-26T21:02:48.263Z,98611.48
2019-01-26T21:05:17.692Z,98615.19
2019-01-26T21:07:47.138Z,98617.12
2019-01-26T21:10:21.393Z,98613.69
2019-01-26T21:12:50.283Z,98611.25
2019-01-26T21:15:18.863Z,98607.79
2019-01-26T21:17:48.204Z,98606.45
2019-01-26T21:20:17.868Z,98612.69
2019-01-26T21:22:47.396Z,98613.95
2019-01-26T21:25:16.737Z,98621.80
2019-01-26T21:27:45.470Z,98625.25
2019-01-26T21:30:16.875Z,98624.03
2019-01-26T21:32:45.524Z,98618.94
2019-01-26T21:35:14.368Z,98616.82
2019-01-26T21:37:42.990Z,98617.79
2019-01-26T21:40:15.422Z,98620.02
2019-01-26T21:42:43.953Z,98629.34
2019-01-26T21:48:15.403Z,98622.09
2019-01-26T21:50:43.950Z,98619.50
2019-01-26T21:53:13.270Z,98613.77
2019-01-26T21:55:42.693Z,98618.02
2019-01-26T21:58:12.107Z,98619.91
2019-01-26T22:00:41.469Z,98618.45
2019-01-26T22:03:11.106Z,98615.92
2019-01-26T22:05:40.455Z,98613.22
2019-01-26T22:08:10.032Z,98612.99
2019-01-26T22:10:39.364Z,98606.83
2019-01-26T22:13:08.787Z,98614.92
2019-01-26T22:15:37.380Z,98611.43
2019-01-26T22:18:05.806Z,98608.59
2019-01-26T22:20:35.155Z,98609.42
2019-01-26T22:23:04.670Z,98606.42
2019-01-26T22:28:36.852Z,98599.09
2019-01-26T22:31:05.373Z,98600.04
2019-01-26T22:33:34.704Z,98592.58
2019-01-26T22:36:04.156Z,98604.44
2019-01-26T22:38:33.497Z,98601.53
2019-01-26T22:41:02.933Z,98593.77
2019-01-26T22:43:32.250Z,98597.92
2019-01-26T22:46:01.610Z,98596.56
2019-01-26T22:48:30.931Z,98595.52
2019-01-26T22:51:00.313Z,98596.02
2019-01-26T22:53:28.747Z,98600.95
2019-01-26T22:55:57.187Z,98603.89
2019-01-26T22:58:26.510Z,98605.10
2019-01-26T23:01:23.680Z,98606.25
2019-01-26T23:04:31.804Z,98606.37
2019-01-26T23:07:27.997Z,98605.64
2019-01-26T23:10:35.256Z,98611.60
2019-01-26T23:13:25.371Z,98608.34
2019-01-26T23:16:33.420Z,98604.22
2019-01-26T23:19:15.351Z,98601.81
2019-01-26T23:22:23.456Z,98597.79
2019-01-26T23:25:30.600Z,98595.56
2019-01-26T23:28:31.149Z,98591.02
2019-01-26T23:31:19.627Z,98586.27
2019-01-26T23:33:50.672Z,98591.55
2019-01-26T23:36:20.094Z,98604.58
2019-01-26T23:38:49.460Z,98600.81
2019-01-26T23:41:19.040Z,98610.75
2019-01-26T23:43:48.493Z,98609.14
2019-01-26T23:46:17.810Z,98611.98
2019-01-26T23:48:47.255Z,98615.67
2019-01-26T23:51:15.774Z,98607.63
2019-01-26T23:53:44.212Z,98617.78
2019-01-26T23:56:13.528Z,98606.85
2019-01-26T23:58:42.196Z,98605.78
